Time;durP1;ratioP1;P1;durP2;ratioP2;P2;SDS_P1;SDS_P2;PMS_P1;PMS_P2;Temp;Humidity;BMP_temperature;BMP_pressure;BME280_temperature;BME280_humidity;BME280_pressure;Samples;Min_cycle;Max_cycle;Signal;HPM_P1;HPM_P2
2023/01/09 00:00:47;;;;;;;6.07;3.10;;;;;;;6.08;100.00;95595.94;5044077;28;20051;-63
2023/01/09 00:03:14;;;;;;;6.15;3.35;;;;;;;6.03;100.00;95593.19;5045516;28;20059;-62
2023/01/09 00:05:40;;;;;;;5.18;2.90;;;;;;;6.02;100.00;95594.28;5044340;28;20044;-62
2023/01/09 00:08:07;;;;;;;6.35;3.33;;;;;;;5.99;100.00;95590.25;5049458;28;20048;-62
2023/01/09 00:10:33;;;;;;;6.10;3.78;;;;;;;5.99;100.00;95584.88;5047505;28;20041;-63
2023/01/09 00:13:00;;;;;;;5.43;3.00;;;;;;;6.05;100.00;95589.19;5048672;28;20037;-62
2023/01/09 00:15:26;;;;;;;6.20;3.13;;;;;;;6.10;100.00;95591.91;5048330;28;20045;-63
2023/01/09 00:17:53;;;;;;;5.07;3.22;;;;;;;6.09;100.00;95584.13;5048435;28;20047;-61
2023/01/09 00:20:19;;;;;;;5.55;3.35;;;;;;;6.01;100.00;95580.03;5048266;28;20077;-62
2023/01/09 00:22:46;;;;;;;5.68;3.17;;;;;;;5.98;100.00;95584.06;5047721;28;20051;-63
2023/01/09 00:25:12;;;;;;;5.40;3.30;;;;;;;5.95;100.00;95576.56;5048054;28;20076;-63
2023/01/09 00:27:38;;;;;;;6.95;3.40;;;;;;;5.94;100.00;95566.06;5048722;28;20052;-62
2023/01/09 00:30:06;;;;;;;5.25;3.30;;;;;;;5.91;100.00;95563.91;5046723;28;20040;-62
2023/01/09 00:32:32;;;;;;;6.38;3.38;;;;;;;5.91;100.00;95564.72;5047104;28;20111;-63
2023/01/09 00:34:59;;;;;;;5.53;3.13;;;;;;;5.94;100.00;95561.50;5047121;28;20053;-62
2023/01/09 00:37:25;;;;;;;6.53;2.92;;;;;;;5.95;100.00;95556.94;5048580;28;20110;-62
2023/01/09 00:39:52;;;;;;;6.00;3.08;;;;;;;5.95;100.00;95562.31;5048690;28;20083;-61
2023/01/09 00:42:21;;;;;;;4.25;2.47;;;;;;;5.97;100.00;95562.84;5045806;28;20080;-63
2023/01/09 00:45:03;;;;;;;6.35;2.60;;;;;;;5.96;100.00;95555.84;5047424;28;20725;-61
2023/01/09 00:47:38;;;;;;;4.47;2.38;;;;;;;5.98;100.00;95565.25;5038347;28;20049;-63
2023/01/09 00:50:11;;;;;;;5.10;2.40;;;;;;;5.99;100.00;95558.00;5047666;28;20067;-60
2023/01/09 00:52:39;;;;;;;4.80;2.70;;;;;;;5.99;100.00;95572.25;5048081;28;20064;-59
2023/01/09 00:55:07;;;;;;;4.88;2.47;;;;;;;6.00;100.00;95565.00;5047212;28;20102;-62
2023/01/09 00:57:33;;;;;;;4.93;2.75;;;;;;;6.03;100.00;95542.16;5048178;28;20114;-60
2023/01/09 01:00:00;;;;;;;4.70;2.55;;;;;;;5.97;100.00;95549.44;5047613;28;20128;-61
2023/01/09 01:02:27;;;;;;;4.63;2.47;;;;;;;6.01;100.00;95550.47;5046842;28;20507;-62
2023/01/09 01:07:38;;;;;;;4.07;2.10;;;;;;;5.98;100.00;95549.13;5048000;28;20076;-60
2023/01/09 01:10:09;;;;;;;4.05;2.22;;;;;;;5.94;100.00;95545.38;5048038;28;20315;-61
2023/01/09 01:12:37;;;;;;;4.33;2.17;;;;;;;5.93;100.00;95548.34;5057794;28;20079;-62
2023/01/09 01:15:05;;;;;;;3.15;1.70;;;;;;;5.96;100.00;95540.56;5059958;28;20048;-62
2023/01/09 01:17:36;;;;;;;4.22;1.75;;;;;;;5.93;100.00;95543.75;5047000;28;20099;-62
2023/01/09 01:20:04;;;;;;;3.65;1.95;;;;;;;5.93;100.00;95538.38;5047030;28;20083;-61
2023/01/09 01:22:31;;;;;;;3.30;1.73;;;;;;;5.95;100.00;95528.19;5046675;28;20065;-62
2023/01/09 01:24:58;;;;;;;2.85;1.40;;;;;;;5.90;100.00;95535.44;5046885;28;20048;-63
2023/01/09 01:27:24;;;;;;;4.25;1.63;;;;;;;5.89;100.00;95553.44;5047215;28;20064;-60
2023/01/09 01:29:51;;;;;;;2.88;1.42;;;;;;;5.85;100.00;95534.38;5047782;28;20049;-61
2023/01/09 01:32:17;;;;;;;3.47;1.88;;;;;;;5.83;100.00;95535.72;5046661;28;20045;-62
2023/01/09 01:34:44;;;;;;;2.83;1.45;;;;;;;5.81;100.00;95533.28;5046264;28;20532;-63
2023/01/09 01:37:13;;;;;;;2.97;1.40;;;;;;;5.83;100.00;95547.25;5046883;28;20044;-59
2023/01/09 01:39:40;;;;;;;2.63;1.17;;;;;;;5.82;100.00;95542.16;5047355;28;20128;-63
2023/01/09 01:42:06;;;;;;;2.45;1.33;;;;;;;5.72;100.00;95549.09;5045685;28;20063;-63
2023/01/09 01:45:06;;;;;;;3.60;1.70;;;;;;;5.69;100.00;95549.66;5047367;28;20076;-60
2023/01/09 01:47:46;;;;;;;2.38;1.27;;;;;;;5.75;100.00;95558.50;5047161;28;20706;-62
2023/01/09 01:50:25;;;;;;;2.42;1.30;;;;;;;5.73;100.00;95557.97;5046694;28;20091;-60
2023/01/09 01:53:25;;;;;;;2.80;1.42;;;;;;;5.77;100.00;95551.00;5045552;28;20564;-61
2023/01/09 01:56:04;;;;;;;3.08;1.33;;;;;;;5.82;100.00;95553.69;5040232;28;20072;-61
2023/01/09 01:58:35;;;;;;;2.38;1.15;;;;;;;5.73;100.00;95555.28;5047027;28;20845;-64
2023/01/09 02:01:02;;;;;;;1.98;1.15;;;;;;;5.72;100.00;95554.47;5045259;28;20037;-61
2023/01/09 02:03:29;;;;;;;2.13;1.15;;;;;;;5.70;100.00;95563.88;5047209;28;20037;-64
2023/01/09 02:05:55;;;;;;;2.40;1.05;;;;;;;5.71;100.00;95562.78;5046086;28;20044;-61
2023/01/09 02:08:22;;;;;;;1.85;1.02;;;;;;;5.72;100.00;95567.13;5047104;28;20041;-61
2023/01/09 02:10:50;;;;;;;1.95;1.08;;;;;;;5.76;100.00;95570.06;5045557;28;20041;-62
2023/01/09 02:13:18;;;;;;;2.83;0.98;;;;;;;5.71;100.00;95566.28;5062950;28;20109;-62
2023/01/09 02:16:03;;;;;;;1.00;0.65;;;;;;;5.76;100.00;95560.13;5054147;28;20040;-62
2023/01/09 02:18:35;;;;;;;2.05;1.00;;;;;;;5.72;100.00;95553.69;5045916;28;20509;-61
2023/01/09 02:21:07;;;;;;;1.88;0.90;;;;;;;5.72;100.00;95538.34;5045550;28;20041;-60
2023/01/09 02:23:52;;;;;;;;;;;;;;;5.67;100.00;95524.13;5047162;28;20388;-62
2023/01/09 02:26:27;;;;;;;2.67;1.20;;;;;;;5.67;100.00;95535.66;5045275;28;19925;-61
2023/01/09 02:29:38;;;;;;;1.90;1.00;;;;;;;5.73;100.00;95540.00;5046266;28;20520;-62
2023/01/09 02:32:13;;;;;;;1.35;0.63;;;;;;;5.72;100.00;95538.34;5045195;28;20037;-63
2023/01/09 02:34:56;;;;;;;1.90;0.82;;;;;;;5.73;100.00;95540.00;5046420;28;20056;-63
2023/01/09 02:37:29;;;;;;;1.63;0.60;;;;;;;5.76;100.00;95548.56;5045648;28;20099;-60
2023/01/09 02:40:21;;;;;;;0.73;0.50;;;;;;;5.82;100.00;95537.56;5046283;28;20072;-62
2023/01/09 02:42:48;;;;;;;0.82;0.50;;;;;;;5.89;100.00;95541.91;5045336;28;20131;-62
2023/01/09 02:45:14;;;;;;;0.88;0.40;;;;;;;5.80;100.00;95544.28;5035203;28;20037;-59
2023/01/09 02:47:44;;;;;;;0.73;0.40;;;;;;;5.77;100.00;95544.81;5045060;28;20124;-61
2023/01/09 02:50:59;;;;;;;0.95;0.50;;;;;;;5.77;100.00;95555.56;5042294;28;20036;-63
2023/01/09 02:53:54;;;;;;;0.88;0.50;;;;;;;5.90;100.00;95559.63;5027725;28;20060;-63
2023/01/09 02:56:36;;;;;;;0.73;0.35;;;;;;;5.79;100.00;95551.53;5041244;28;20072;-61
2023/01/09 02:59:18;;;;;;;1.10;0.40;;;;;;;5.75;100.00;95563.09;5045131;28;20111;-61
2023/01/09 03:02:03;;;;;;;0.70;0.40;;;;;;;5.67;100.00;95569.75;5042755;28;20501;-61
2023/01/09 03:04:47;;;;;;;1.10;0.60;;;;;;;5.67;100.00;95567.06;5033795;28;20098;-63
2023/01/09 03:07:35;;;;;;;1.98;0.65;;;;;;;5.66;100.00;95570.84;5040951;28;20033;-61
2023/01/09 03:10:27;;;;;;;0.88;0.45;;;;;;;5.69;100.00;95573.00;5045594;28;20037;-62
2023/01/09 03:12:57;;;;;;;0.88;0.50;;;;;;;5.69;100.00;95575.69;5058449;28;20045;-62
2023/01/09 03:15:30;;;;;;;0.73;0.40;;;;;;;5.69;100.00;95589.94;5048611;28;20381;-62
2023/01/09 03:17:57;;;;;;;1.15;0.65;;;;;;;5.78;100.00;95595.56;5046209;28;20075;-63
2023/01/09 03:20:28;;;;;;;0.60;0.30;;;;;;;5.84;100.00;95588.34;5044869;28;20049;-62
2023/01/09 03:22:57;;;;;;;0.47;0.30;;;;;;;5.92;100.00;95595.06;5044946;28;20128;-63
2023/01/09 03:25:25;;;;;;;0.43;0.20;;;;;;;6.06;100.00;95600.78;5045526;28;20110;-61
2023/01/09 03:27:58;;;;;;;0.75;0.30;;;;;;;5.99;100.00;95609.06;5044909;28;20091;-61
2023/01/09 03:30:27;;;;;;;0.95;0.30;;;;;;;6.01;100.00;95631.06;5045479;28;20055;-63
2023/01/09 03:32:54;;;;;;;1.10;0.50;;;;;;;5.98;100.00;95642.38;5045261;28;20451;-62
2023/01/09 03:35:20;;;;;;;0.47;0.30;;;;;;;5.91;100.00;95660.63;5044400;28;20123;-63
2023/01/09 03:37:47;;;;;;;1.38;0.20;;;;;;;5.80;100.00;95675.88;5045831;28;20037;-61
2023/01/09 03:40:14;;;;;;;0.47;0.28;;;;;;;5.55;100.00;95696.19;5045175;28;20045;-61
2023/01/09 03:42:40;;;;;;;0.75;0.10;;;;;;;5.46;100.00;95701.25;5047591;28;20063;-62
2023/01/09 03:45:07;;;;;;;1.60;0.30;;;;;;;5.18;100.00;95714.78;5048878;28;20079;-61
2023/01/09 03:47:34;;;;;;;0.67;0.10;;;;;;;4.87;100.00;95719.13;5047693;28;20045;-62
2023/01/09 03:50:01;;;;;;;0.10;0.10;;;;;;;4.72;100.00;95722.47;5048536;28;20735;-60
2023/01/09 03:52:27;;;;;;;0.35;0.17;;;;;;;4.52;100.00;95730.09;5048194;28;20048;-62
2023/01/09 03:54:54;;;;;;;0.30;0.10;;;;;;;4.35;100.00;95740.88;5047409;28;20037;-62
2023/01/09 03:57:20;;;;;;;0.20;0.10;;;;;;;4.23;100.00;95746.41;5049006;28;20042;-62
2023/01/09 03:59:47;;;;;;;0.10;0.10;;;;;;;4.13;100.00;95757.00;5049177;28;20581;-62
2023/01/09 04:02:13;;;;;;;0.00;0.00;;;;;;;4.03;100.00;95750.44;5047335;28;20044;-61
2023/01/09 04:04:40;;;;;;;0.10;0.10;;;;;;;4.01;100.00;95757.13;5048841;28;20037;-61
2023/01/09 04:07:06;;;;;;;1.40;0.35;;;;;;;3.98;100.00;95763.00;5048230;28;20037;-63
2023/01/09 04:09:33;;;;;;;0.10;0.10;;;;;;;3.91;100.00;95771.22;5049390;28;20053;-63
2023/01/09 04:11:59;;;;;;;0.10;0.10;;;;;;;3.94;100.00;95775.28;5052434;28;20052;-62
2023/01/09 04:14:26;;;;;;;0.10;0.10;;;;;;;3.90;100.00;95775.75;5069183;28;20123;-61
2023/01/09 04:16:52;;;;;;;2.38;0.25;;;;;;;3.95;100.00;95784.91;5048917;28;20493;-63
2023/01/09 04:19:19;;;;;;;1.17;0.10;;;;;;;3.96;100.00;95795.38;5047845;28;20068;-60
2023/01/09 04:21:45;;;;;;;1.25;0.20;;;;;;;4.01;100.00;95805.34;5046904;28;20048;-63
2023/01/09 04:24:12;;;;;;;0.35;0.20;;;;;;;4.10;100.00;95803.88;5047829;28;20079;-63
2023/01/09 04:26:38;;;;;;;0.40;0.20;;;;;;;4.16;100.00;95810.06;5047624;28;20051;-62
2023/01/09 04:29:05;;;;;;;0.93;0.20;;;;;;;4.25;100.00;95810.47;5048999;28;20651;-63
2023/01/09 04:31:31;;;;;;;0.30;0.10;;;;;;;4.20;100.00;95819.22;5046837;28;20051;-63
2023/01/09 04:33:58;;;;;;;0.90;0.20;;;;;;;4.18;100.00;95812.50;5048016;28;20065;-61
2023/01/09 04:36:24;;;;;;;0.20;0.20;;;;;;;4.09;100.00;95812.16;5048198;28;20045;-60
2023/01/09 04:38:51;;;;;;;0.85;0.30;;;;;;;4.09;100.00;95818.28;5048313;28;20124;-63
2023/01/09 04:42:03;;;;;;;0.20;0.17;;;;;;;4.16;100.00;95824.28;5046662;28;20512;-63
2023/01/09 04:44:04;;;;;;;0.77;0.20;;;;;;;4.22;100.00;95821.66;5040532;28;20075;-62
2023/01/09 04:46:31;;;;;;;1.38;0.40;;;;;;;4.14;100.00;95820.25;5048133;28;20079;-61
2023/01/09 04:48:57;;;;;;;0.80;0.35;;;;;;;4.13;100.00;95834.69;5047721;28;20122;-62
2023/01/09 04:51:23;;;;;;;0.25;0.25;;;;;;;4.16;100.00;95826.97;5046246;28;20086;-63
2023/01/09 04:53:50;;;;;;;0.45;0.20;;;;;;;4.23;100.00;95834.81;5048690;28;20568;-61
2023/01/09 04:56:16;;;;;;;0.17;0.17;;;;;;;4.25;100.00;95832.72;5044948;28;20044;-62
2023/01/09 04:58:43;;;;;;;0.30;0.22;;;;;;;4.36;100.00;95827.47;5047725;28;20508;-62
2023/01/09 05:01:09;;;;;;;0.50;0.20;;;;;;;4.33;100.00;95839.50;5046787;28;20040;-62
2023/01/09 05:03:36;;;;;;;2.05;0.50;;;;;;;4.26;100.00;95839.69;5048299;28;20409;-63
2023/01/09 05:06:03;;;;;;;0.77;0.35;;;;;;;4.36;100.00;95852.41;5047686;28;20047;-61
2023/01/09 05:08:29;;;;;;;1.13;0.30;;;;;;;4.40;100.00;95841.97;5048711;28;20642;-62
2023/01/09 05:10:55;;;;;;;2.33;0.40;;;;;;;4.24;100.00;95844.47;5045761;28;20049;-63
2023/01/09 05:13:22;;;;;;;1.20;0.40;;;;;;;4.31;100.00;95863.03;5047882;28;20044;-63
2023/01/09 05:15:48;;;;;;;0.90;0.40;;;;;;;4.37;100.00;95883.50;5046260;28;20047;-60
2023/01/09 05:18:15;;;;;;;0.40;0.30;;;;;;;4.42;100.00;95880.03;5047873;28;20041;-61
2023/01/09 05:20:41;;;;;;;0.28;0.25;;;;;;;4.27;100.00;95876.13;5045922;28;20049;-61
2023/01/09 05:23:08;;;;;;;1.50;0.55;;;;;;;4.27;100.00;95878.81;5048209;28;20041;-62
2023/01/09 05:25:34;;;;;;;2.50;0.38;;;;;;;4.33;100.00;95889.59;5046968;28;20048;-62
2023/01/09 05:28:01;;;;;;;1.30;0.40;;;;;;;4.35;99.01;95895.53;5047803;28;20102;-60
2023/01/09 05:30:28;;;;;;;1.95;0.40;;;;;;;4.35;98.38;95899.00;5047459;28;20136;-60
2023/01/09 05:32:54;;;;;;;1.58;0.43;;;;;;;4.40;97.99;95898.25;5046603;28;20583;-63
2023/01/09 05:35:20;;;;;;;0.82;0.60;;;;;;;4.29;97.82;95911.53;5045402;28;20135;-63
2023/01/09 05:37:47;;;;;;;5.28;0.65;;;;;;;4.29;97.14;95911.53;5047637;28;20518;-63
2023/01/09 05:40:13;;;;;;;3.88;0.80;;;;;;;4.17;97.99;95913.50;5046675;28;20049;-62
2023/01/09 05:42:42;;;;;;;3.22;0.68;;;;;;;4.07;98.37;95916.03;5046226;28;20100;-63
2023/01/09 05:45:09;;;;;;;0.85;0.40;;;;;;;4.19;96.69;95915.91;5046982;28;20049;-63
2023/01/09 05:47:36;;;;;;;1.38;0.40;;;;;;;4.02;96.95;95909.53;5046065;28;20064;-60
2023/01/09 05:50:03;;;;;;;1.02;0.50;;;;;;;3.94;97.88;95912.63;5046425;28;20128;-62
2023/01/09 05:52:29;;;;;;;2.17;0.50;;;;;;;4.03;96.84;95916.50;5046028;28;20097;-63
2023/01/09 05:54:56;;;;;;;2.92;0.50;;;;;;;3.96;96.34;95923.94;5046036;28;20045;-61
2023/01/09 05:57:22;;;;;;;1.58;0.40;;;;;;;3.91;96.39;95921.19;5047134;28;20049;-62
2023/01/09 05:59:49;;;;;;;2.70;0.40;;;;;;;3.80;97.09;95922.91;5046366;28;20049;-62
2023/01/09 06:02:15;;;;;;;1.85;0.50;;;;;;;3.86;96.52;95921.09;5045210;28;20041;-62
2023/01/09 06:04:42;;;;;;;3.25;0.52;;;;;;;3.80;96.91;95917.53;5045778;28;20076;-61
2023/01/09 06:07:09;;;;;;;1.33;0.50;;;;;;;3.89;95.84;95931.31;5026826;28;20051;-62
2023/01/09 06:09:35;;;;;;;2.60;0.82;;;;;;;3.93;95.27;95929.78;5026935;28;20088;-62
2023/01/09 06:12:02;;;;;;;1.83;0.63;;;;;;;3.88;94.90;95938.53;5037069;28;20036;-62
2023/01/09 06:14:29;;;;;;;2.58;0.77;;;;;;;3.86;94.83;95945.19;5060163;28;20068;-60
2023/01/09 06:16:55;;;;;;;1.98;0.57;;;;;;;3.83;94.54;95948.38;5041700;28;20130;-61
2023/01/09 06:19:22;;;;;;;2.30;0.57;;;;;;;3.73;94.81;95952.47;5039758;28;20106;-62
2023/01/09 06:21:48;;;;;;;2.65;0.52;;;;;;;3.75;94.79;95944.22;5045456;28;20128;-63
2023/01/09 06:24:15;;;;;;;2.00;0.60;;;;;;;3.64;95.56;95967.31;5045904;28;20397;-62
2023/01/09 06:26:41;;;;;;;1.90;0.50;;;;;;;3.72;94.96;95961.56;5040006;28;20041;-61
2023/01/09 06:29:08;;;;;;;1.75;0.63;;;;;;;3.76;94.69;95948.53;5043149;28;20045;-61
2023/01/09 06:31:34;;;;;;;2.50;0.52;;;;;;;3.71;94.82;95961.81;5040329;28;20052;-62
2023/01/09 06:34:01;;;;;;;1.60;0.40;;;;;;;3.67;95.57;95953.47;5047587;28;20045;-61
2023/01/09 06:36:27;;;;;;;3.08;0.90;;;;;;;3.64;96.33;95962.78;5042049;28;20124;-61
2023/01/09 06:38:54;;;;;;;3.70;0.80;;;;;;;3.55;98.07;95966.09;5042020;28;20048;-61
2023/01/09 06:41:20;;;;;;;1.58;0.40;;;;;;;3.63;97.58;95971.88;5040258;28;20060;-62
2023/01/09 06:43:47;;;;;;;1.17;0.70;;;;;;;3.70;97.85;95958.34;5043202;28;20049;-62
2023/01/09 06:46:13;;;;;;;1.77;0.52;;;;;;;3.83;97.35;95964.44;5042799;28;20528;-62
2023/01/09 06:48:40;;;;;;;1.42;0.57;;;;;;;3.85;96.95;95963.13;5046732;28;20048;-61
2023/01/09 06:51:07;;;;;;;5.85;0.90;;;;;;;3.69;98.55;95962.06;5039731;28;20052;-61
2023/01/09 06:53:34;;;;;;;3.42;0.70;;;;;;;3.81;97.41;95970.03;5036074;28;20047;-61
2023/01/09 06:56:01;;;;;;;3.17;0.50;;;;;;;3.86;97.55;95958.56;5043963;28;20658;-61
2023/01/09 06:58:28;;;;;;;3.17;0.90;;;;;;;3.75;98.31;95954.91;5046579;28;20037;-60
2023/01/09 07:00:55;;;;;;;2.40;0.73;;;;;;;3.70;99.23;95958.34;5044307;28;20045;-62
2023/01/09 07:03:21;;;;;;;2.15;0.73;;;;;;;3.76;97.93;95960.03;5047869;28;20052;-62
2023/01/09 07:05:48;;;;;;;3.55;0.80;;;;;;;3.69;98.89;95966.63;5040244;28;20049;-61
2023/01/09 07:08:15;;;;;;;2.45;0.70;;;;;;;3.63;99.09;95958.50;5040216;28;20127;-61
2023/01/09 07:10:42;;;;;;;4.40;0.85;;;;;;;3.62;99.36;95956.84;5040896;28;20433;-62
2023/01/09 07:13:09;;;;;;;1.95;0.68;;;;;;;3.66;98.46;95961.75;5044417;28;20094;-61
2023/01/09 07:15:36;;;;;;;1.42;0.52;;;;;;;3.79;97.96;95961.41;5042764;28;20053;-62
2023/01/09 07:18:03;;;;;;;2.85;0.57;;;;;;;3.76;98.95;95975.31;5041032;28;20041;-61
2023/01/09 07:20:29;;;;;;;3.70;0.77;;;;;;;3.68;99.36;95968.47;5038805;28;20706;-60
2023/01/09 07:22:57;;;;;;;3.45;0.73;;;;;;;3.68;99.45;95973.03;5040871;28;20492;-62
2023/01/09 07:25:23;;;;;;;4.07;1.08;;;;;;;3.71;99.29;95977.88;5040654;28;20045;-62
2023/01/09 07:27:50;;;;;;;3.38;1.00;;;;;;;3.73;98.92;95973.09;5041600;28;20045;-60
2023/01/09 07:30:16;;;;;;;6.00;1.80;;;;;;;3.85;98.11;95976.53;5039083;28;20130;-61
2023/01/09 07:32:43;;;;;;;5.95;1.52;;;;;;;3.82;98.25;95973.50;5038562;28;20053;-60
2023/01/09 07:35:10;;;;;;;1.95;0.65;;;;;;;3.77;98.33;95976.94;5040757;28;20049;-62
2023/01/09 07:37:36;;;;;;;2.35;0.60;;;;;;;3.75;98.68;95977.16;5038687;28;20060;-61
2023/01/09 07:40:03;;;;;;;7.93;1.00;;;;;;;3.72;98.79;95983.00;5036684;28;20045;-61
2023/01/09 07:42:30;;;;;;;1.60;0.50;;;;;;;3.75;98.47;95987.88;5040978;28;20469;-60
2023/01/09 07:44:56;;;;;;;5.10;0.70;;;;;;;3.80;97.56;95984.47;5040600;28;20114;-61
2023/01/09 07:47:23;;;;;;;3.08;0.75;;;;;;;3.77;97.83;95988.44;5042098;28;20485;-61
2023/01/09 07:49:49;;;;;;;2.22;0.80;;;;;;;3.74;98.16;95993.47;5041251;28;20060;-61
2023/01/09 07:52:16;;;;;;;3.90;0.57;;;;;;;3.69;98.66;95999.53;5041658;28;20044;-60
2023/01/09 07:54:42;;;;;;;2.17;0.50;;;;;;;3.76;98.17;96002.09;5041527;28;20605;-61
2023/01/09 07:57:09;;;;;;;3.70;0.82;;;;;;;3.85;97.87;96002.47;5042988;28;20076;-61
2023/01/09 07:59:35;;;;;;;3.25;0.70;;;;;;;3.86;98.03;95999.56;5041980;28;20041;-61
2023/01/09 08:02:04;;;;;;;3.85;0.82;;;;;;;3.77;98.91;96003.69;5040622;28;20481;-61
2023/01/09 08:04:30;;;;;;;2.03;0.65;;;;;;;3.75;99.83;96000.44;5042282;28;20045;-61
2023/01/09 08:06:57;;;;;;;3.13;0.60;;;;;;;3.71;100.00;95997.44;5040637;28;20125;-61
2023/01/09 08:09:24;;;;;;;2.97;0.80;;;;;;;3.72;100.00;95996.38;5041737;28;20148;-60
2023/01/09 08:11:50;;;;;;;4.22;0.77;;;;;;;3.74;100.00;95998.81;5046061;28;20076;-60
2023/01/09 08:14:17;;;;;;;7.32;1.00;;;;;;;3.68;100.00;96011.31;5046283;28;20080;-61
2023/01/09 08:16:43;;;;;;;3.30;0.70;;;;;;;3.71;100.00;96007.31;5036431;28;20060;-62
2023/01/09 08:19:10;;;;;;;2.60;0.85;;;;;;;3.69;99.81;96014.81;5042080;28;20124;-61
2023/01/09 08:21:38;;;;;;;7.90;1.02;;;;;;;3.77;99.26;96011.72;5041323;28;20530;-60
2023/01/09 08:24:05;;;;;;;3.55;0.77;;;;;;;3.72;100.00;96015.13;5042054;28;20098;-60
2023/01/09 08:26:32;;;;;;;3.25;0.50;;;;;;;3.72;99.62;96009.75;5042037;28;20044;-62
2023/01/09 08:28:58;;;;;;;4.75;0.88;;;;;;;3.73;99.92;96014.06;5046159;28;20049;-62
2023/01/09 08:31:25;;;;;;;5.25;0.95;;;;;;;3.75;99.26;96027.22;5043405;28;20044;-62
2023/01/09 08:33:51;;;;;;;2.58;0.60;;;;;;;3.77;99.20;96030.47;5045724;28;20049;-61
2023/01/09 08:36:18;;;;;;;4.22;0.75;;;;;;;3.79;99.08;96028.34;5045946;28;20068;-62
2023/01/09 08:38:44;;;;;;;3.55;0.80;;;;;;;3.84;98.73;96033.78;5031596;28;20136;-62
2023/01/09 08:49:26;;;;;;;5.50;0.90;;;;;;;4.05;97.40;96044.84;5045434;28;20041;-62
2023/01/09 08:51:52;;;;;;;2.47;0.50;;;;;;;4.08;97.41;96039.00;5039221;28;20122;-62
2023/01/09 08:54:19;;;;;;;2.58;0.73;;;;;;;4.09;97.66;96031.78;5046145;28;20049;-61
2023/01/09 08:56:46;;;;;;;1.77;0.52;;;;;;;4.12;98.01;96042.00;5039378;28;20048;-61
2023/01/09 08:59:12;;;;;;;1.88;0.70;;;;;;;4.19;97.68;96042.66;5044733;28;20052;-62
2023/01/09 09:01:39;;;;;;;6.32;1.00;;;;;;;4.31;96.00;96039.88;5043758;28;20128;-61
2023/01/09 09:04:05;;;;;;;4.45;0.68;;;;;;;4.41;96.25;96036.56;5044640;28;20076;-60
2023/01/09 09:06:32;;;;;;;2.75;0.57;;;;;;;4.48;96.38;96039.06;5044161;28;20133;-60
2023/01/09 09:09:02;;;;;;;2.92;0.50;;;;;;;4.63;95.61;96043.84;5044253;28;20076;-61
2023/01/09 09:11:29;;;;;;;2.78;0.57;;;;;;;4.66;95.09;96049.53;5045900;28;20040;-61
2023/01/09 09:13:56;;;;;;;3.45;0.68;;;;;;;4.72;94.83;96047.72;5050051;28;20131;-61
2023/01/09 09:16:24;;;;;;;2.47;0.63;;;;;;;4.79;95.95;96045.69;5042731;28;20029;-62
2023/01/09 09:18:51;;;;;;;2.38;0.75;;;;;;;4.84;93.70;96047.63;5045595;28;20385;-62
2023/01/09 09:21:19;;;;;;;4.93;0.80;;;;;;;4.82;95.49;96047.88;5042503;28;20270;-61
2023/01/09 09:23:45;;;;;;;3.40;1.10;;;;;;;4.93;95.35;96042.63;5047864;28;20072;-62
2023/01/09 09:26:12;;;;;;;4.32;0.82;;;;;;;4.97;94.52;96045.66;5041230;28;20049;-61
2023/01/09 09:28:38;;;;;;;3.03;0.70;;;;;;;5.05;94.08;96043.31;5044520;28;20044;-61
2023/01/09 09:31:06;;;;;;;2.15;0.73;;;;;;;5.13;95.00;96054.69;5042910;28;20049;-60
2023/01/09 09:33:33;;;;;;;4.22;0.65;;;;;;;5.17;92.94;96053.13;5045121;28;20063;-60
2023/01/09 09:35:59;;;;;;;2.80;0.85;;;;;;;5.25;92.20;96058.06;5036548;28;20095;-61
2023/01/09 09:38:27;;;;;;;1.38;0.50;;;;;;;5.32;93.74;96068.59;5039767;28;20063;-61
2023/01/09 09:44:42;;;;;;;1.40;0.65;;;;;;;5.31;92.43;96070.47;5038567;28;20568;-61
2023/01/09 09:47:56;;;;;;;1.90;0.77;;;;;;;5.31;92.15;96073.16;5042208;28;20091;-61
2023/01/09 09:50:36;;;;;;;2.00;0.60;;;;;;;5.36;92.27;96079.66;5041718;28;20700;-61
2023/01/09 09:53:02;;;;;;;2.72;0.68;;;;;;;5.41;92.06;96071.66;5045177;28;20055;-62
2023/01/09 09:55:32;;;;;;;2.35;0.68;;;;;;;5.46;92.52;96069.84;5043205;28;20057;-61
2023/01/09 09:58:04;;;;;;;1.70;0.50;;;;;;;5.41;93.44;96067.09;5046895;28;20041;-61
2023/01/09 10:00:31;;;;;;;3.25;0.70;;;;;;;5.44;92.70;96063.09;5045446;28;20053;-61
2023/01/09 10:03:05;;;;;;;3.45;0.60;;;;;;;5.39;93.37;96065.72;5043552;28;20128;-60
2023/01/09 10:05:47;;;;;;;2.83;0.80;;;;;;;5.42;92.46;96059.88;5043094;28;20044;-61
2023/01/09 10:08:41;;;;;;;1.85;0.50;;;;;;;5.41;93.61;96063.59;5044826;28;20148;-60
2023/01/09 10:11:16;;;;;;;2.47;0.50;;;;;;;5.33;93.48;96060.31;5038879;28;20614;-60
2023/01/09 10:16:49;;;;;;;4.32;0.80;;;;;;;5.24;94.36;96048.41;5038715;28;20049;-60
2023/01/09 10:19:39;;;;;;;3.28;0.73;;;;;;;5.25;94.25;96051.88;5043349;28;20041;-60
2023/01/09 10:22:25;;;;;;;4.25;0.95;;;;;;;5.22;93.49;96053.19;5042788;28;20068;-61
2023/01/09 10:25:10;;;;;;;2.95;0.70;;;;;;;5.29;93.22;96050.31;5043431;28;20052;-60
2023/01/09 10:28:14;;;;;;;4.05;1.15;;;;;;;5.41;92.80;96048.31;5042688;28;20106;-61
2023/01/09 10:30:55;;;;;;;4.05;0.88;;;;;;;5.43;93.11;96045.38;5042341;28;20094;-61
2023/01/09 10:33:39;;;;;;;2.75;0.60;;;;;;;5.40;92.27;96045.88;5044177;28;20060;-60
2023/01/09 10:36:24;;;;;;;3.17;0.70;;;;;;;5.53;93.03;96048.16;5037115;28;20045;-60
2023/01/09 10:38:54;;;;;;;4.65;0.75;;;;;;;5.59;90.98;96049.03;5043707;28;20489;-60
2023/01/09 10:41:28;;;;;;;2.60;0.60;;;;;;;5.65;92.23;96039.97;5041771;28;20508;-60
2023/01/09 10:44:01;;;;;;;3.95;0.73;;;;;;;5.67;91.53;96039.69;5043673;28;20052;-60
2023/01/09 10:46:37;;;;;;;5.57;0.70;;;;;;;5.76;91.91;96029.31;5039724;28;20045;-61
2023/01/09 10:49:11;;;;;;;5.63;1.67;;;;;;;5.71;92.99;96030.91;5041111;28;20045;-60
2023/01/09 10:52:01;;;;;;;3.05;0.52;;;;;;;5.70;91.27;96023.91;5041742;28;20654;-59
2023/01/09 10:54:28;;;;;;;1.15;0.52;;;;;;;5.75;89.81;96016.97;5038433;28;20127;-58
2023/01/09 10:57:27;;;;;;;3.70;0.75;;;;;;;5.73;90.85;96022.59;5043026;28;20471;-59
2023/01/09 10:59:55;;;;;;;2.78;0.68;;;;;;;5.66;91.57;96021.97;5042521;28;20041;-59
2023/01/09 11:02:24;;;;;;;3.35;0.60;;;;;;;5.68;90.31;96017.97;5041396;28;20053;-59
2023/01/09 11:04:51;;;;;;;3.05;0.98;;;;;;;5.68;90.18;96009.91;5042253;28;20120;-59
2023/01/09 11:07:21;;;;;;;1.92;0.50;;;;;;;5.65;91.82;96012.31;5043677;28;20107;-60
2023/01/09 11:09:56;;;;;;;3.13;0.70;;;;;;;5.62;91.21;96010.13;5042641;28;20148;-59
2023/01/09 11:12:25;;;;;;;3.17;0.82;;;;;;;5.71;91.48;96011.28;5048301;28;20056;-60
2023/01/09 11:14:52;;;;;;;3.03;0.70;;;;;;;5.75;90.61;96008.91;5041931;28;20103;-60
2023/01/09 11:17:24;;;;;;;2.50;0.60;;;;;;;5.85;90.77;96009.00;5042086;28;20556;-60
2023/01/09 11:20:00;;;;;;;;;;;;;;;5.96;91.12;96013.41;5042303;28;20136;-61
2023/01/09 11:22:27;;;;;;;2.03;0.73;;;;;;;5.95;90.15;96001.03;5040767;28;19931;-61
2023/01/09 11:25:04;;;;;;;2.35;0.73;;;;;;;6.11;91.44;96004.69;5043773;28;20049;-61
2023/01/09 11:27:30;;;;;;;2.35;0.63;;;;;;;6.32;90.14;96004.84;5040182;28;20144;-61
2023/01/09 11:30:03;;;;;;;3.58;0.65;;;;;;;6.33;88.65;96002.94;5043482;28;20045;-61
2023/01/09 11:32:30;;;;;;;2.90;0.93;;;;;;;6.22;89.19;96000.19;5040980;28;20588;-61
2023/01/09 11:34:57;;;;;;;3.83;0.60;;;;;;;6.20;88.96;96006.91;5041671;28;20072;-61
2023/01/09 11:37:28;;;;;;;1.98;0.40;;;;;;;6.07;86.22;96000.06;5043234;28;20118;-60
2023/01/09 11:39:57;;;;;;;4.95;1.15;;;;;;;6.03;88.41;95997.09;5041231;28;20136;-61
2023/01/09 11:45:19;;;;;;;2.75;0.75;;;;;;;5.99;88.57;95999.47;5041579;28;20079;-60
2023/01/09 11:47:45;;;;;;;4.22;0.93;;;;;;;5.96;89.98;95993.75;5042209;28;20053;-60
2023/01/09 11:50:25;;;;;;;2.97;0.70;;;;;;;5.95;88.58;95987.59;5040270;28;20663;-61
2023/01/09 11:53:15;;;;;;;2.33;1.02;;;;;;;5.91;89.46;95993.72;5042219;28;20048;-61
2023/01/09 11:55:44;;;;;;;2.95;0.47;;;;;;;5.93;89.75;95992.41;5042666;28;20048;-60
2023/01/09 11:58:16;;;;;;;4.15;0.70;;;;;;;5.86;89.12;95989.13;5042358;28;20073;-60
2023/01/09 12:00:52;;;;;;;4.95;0.65;;;;;;;5.86;90.57;95995.31;5040887;28;20841;-60
2023/01/09 12:03:50;;;;;;;4.97;1.50;;;;;;;5.79;93.01;95999.28;5046053;28;20699;-59
2023/01/09 12:06:45;;;;;;;1.92;0.60;;;;;;;5.62;95.04;96007.44;5045513;28;20041;-60
2023/01/09 12:09:40;;;;;;;3.05;1.00;;;;;;;5.80;95.36;96017.84;5046392;28;20099;-61
2023/01/09 12:12:13;;;;;;;6.10;1.23;;;;;;;5.76;95.37;96018.59;5050413;28;20105;-60
2023/01/09 12:14:42;;;;;;;1.15;0.63;;;;;;;5.78;95.19;96019.16;5046644;28;20045;-61